createdAt,value
2019-03-22T00:02:19.799Z,35.80
2019-03-22T00:04:47.908Z,35.07
2019-03-22T00:07:15.818Z,39.80
2019-03-22T00:09:43.884Z,38.47
2019-03-22T00:12:11.912Z,40.57
2019-03-22T00:14:39.853Z,40.57
2019-03-22T00:17:07.773Z,38.40
2019-03-22T00:19:35.658Z,41.17
2019-03-22T00:22:03.495Z,40.20
2019-03-22T00:24:31.484Z,39.93
2019-03-22T00:26:59.556Z,39.97
2019-03-22T00:29:46.595Z,37.93
2019-03-22T00:32:14.461Z,38.70
2019-03-22T00:34:42.505Z,39.73
2019-03-22T00:37:10.414Z,38.30
2019-03-22T00:39:38.525Z,43.37
2019-03-22T00:42:06.665Z,40.90
2019-03-22T00:44:53.815Z,43.13
2019-03-22T00:47:21.720Z,47.67
2019-03-22T00:50:08.768Z,44.40
2019-03-22T00:52:36.670Z,45.13
2019-03-22T00:55:23.838Z,48.10
2019-03-22T00:57:51.698Z,51.73
2019-03-22T01:00:38.979Z,49.63
2019-03-22T01:03:06.983Z,51.03
2019-03-22T01:05:54.132Z,49.70
2019-03-22T01:08:22.151Z,46.80
2019-03-22T01:10:52.663Z,51.43
2019-03-22T01:13:20.682Z,47.97
2019-03-22T01:15:49.946Z,52.37
2019-03-22T01:18:17.870Z,52.00
2019-03-22T01:21:05.070Z,50.60
2019-03-22T01:23:52.135Z,54.30
2019-03-22T01:26:20.179Z,48.80
2019-03-22T01:28:48.097Z,45.03
2019-03-22T01:31:16.152Z,45.90
2019-03-22T01:33:44.203Z,49.73
2019-03-22T01:36:12.117Z,49.73
2019-03-22T01:38:40.186Z,49.27
2019-03-22T01:41:08.077Z,49.57
2019-03-22T01:43:35.963Z,50.23
2019-03-22T01:46:04.024Z,51.33
2019-03-22T01:48:32.074Z,51.57
2019-03-22T01:51:00.113Z,51.23
2019-03-22T01:53:28.056Z,52.57
2019-03-22T01:55:55.946Z,51.27
2019-03-22T01:58:23.899Z,55.17
2019-03-22T02:00:52.033Z,54.57
2019-03-22T02:03:19.900Z,52.83
2019-03-22T02:05:47.790Z,53.90
2019-03-22T02:08:15.960Z,52.43
2019-03-22T02:10:56.549Z,55.37
2019-03-22T02:13:24.587Z,51.10
2019-03-22T02:16:11.660Z,57.27
2019-03-22T02:18:42.561Z,52.37
2019-03-22T02:21:10.535Z,54.40
2019-03-22T02:23:38.439Z,56.90
2019-03-22T02:26:06.363Z,52.33
2019-03-22T02:28:36.990Z,56.80
2019-03-22T02:31:04.937Z,60.20
2019-03-22T02:33:32.886Z,59.03
2019-03-22T02:36:00.946Z,64.20
2019-03-22T02:38:29.015Z,60.13
2019-03-22T02:40:56.964Z,57.13
2019-03-22T02:43:24.954Z,55.13
2019-03-22T02:46:12.088Z,60.90
2019-03-22T02:48:40.073Z,56.93
2019-03-22T02:51:07.943Z,57.17
2019-03-22T02:53:35.852Z,61.57
2019-03-22T02:56:03.778Z,58.20
2019-03-22T02:58:51.173Z,57.63
2019-03-22T03:01:19.176Z,60.60
2019-03-22T03:03:47.050Z,58.50
2019-03-22T03:06:34.097Z,61.37
2019-03-22T03:11:47.129Z,59.80
2019-03-22T03:14:15.103Z,61.57
2019-03-22T03:16:43.402Z,58.40
2019-03-22T03:19:11.485Z,59.40
2019-03-22T03:21:39.375Z,62.93
2019-03-22T03:24:07.493Z,64.57
2019-03-22T03:26:35.461Z,63.40
2019-03-22T03:29:03.353Z,66.13
2019-03-22T03:31:31.427Z,64.77
2019-03-22T03:33:59.407Z,66.67
2019-03-22T03:36:27.507Z,65.57
2019-03-22T03:38:55.363Z,68.70
2019-03-22T03:41:23.346Z,66.07
2019-03-22T03:43:51.361Z,68.77
2019-03-22T03:46:19.312Z,67.43
2019-03-22T03:48:47.452Z,68.00
2019-03-22T03:51:15.590Z,65.07
2019-03-22T03:53:43.586Z,72.90
2019-03-22T03:56:11.557Z,69.20
2019-03-22T03:58:58.611Z,65.20
2019-03-22T04:01:38.980Z,66.77
2019-03-22T04:04:07.027Z,70.80
2019-03-22T04:06:35.052Z,73.90
2019-03-22T04:09:04.549Z,71.57
2019-03-22T04:11:51.600Z,68.50
2019-03-22T04:14:19.455Z,66.47
2019-03-22T04:16:47.401Z,70.87
2019-03-22T04:19:34.531Z,72.47
2019-03-22T04:22:02.413Z,73.40
2019-03-22T04:24:30.277Z,72.33
2019-03-22T04:26:58.220Z,73.57
2019-03-22T04:29:26.067Z,76.00
2019-03-22T04:31:54.222Z,80.63
2019-03-22T04:34:22.180Z,72.23
2019-03-22T04:37:09.319Z,72.87
2019-03-22T04:39:37.141Z,64.97
2019-03-22T04:42:05.036Z,69.27
2019-03-22T04:44:33.186Z,66.83
2019-03-22T04:47:01.102Z,69.80
2019-03-22T04:49:48.165Z,68.40
2019-03-22T04:52:17.673Z,62.23
2019-03-22T04:54:45.589Z,73.87
2019-03-22T04:57:13.661Z,74.47
2019-03-22T04:59:41.555Z,73.57
2019-03-22T05:02:09.640Z,72.87
2019-03-22T05:04:37.584Z,75.20
2019-03-22T05:07:05.489Z,78.23
2019-03-22T05:09:33.547Z,75.73
2019-03-22T05:12:01.443Z,77.70
2019-03-22T05:14:48.509Z,85.20
2019-03-22T05:17:35.671Z,81.87
2019-03-22T05:20:04.003Z,82.97
2019-03-22T05:22:51.494Z,84.07
2019-03-22T05:25:19.494Z,86.27
2019-03-22T05:27:47.380Z,81.87
2019-03-22T05:30:53.924Z,82.43
2019-03-22T05:33:21.921Z,87.30
2019-03-22T05:35:49.955Z,81.90
2019-03-22T05:38:18.081Z,85.37
2019-03-22T05:40:46.011Z,89.20
2019-03-22T05:43:13.945Z,85.03
2019-03-22T05:45:41.905Z,82.47
2019-03-22T05:48:09.749Z,86.83
2019-03-22T05:50:37.612Z,84.67
2019-03-22T05:53:05.482Z,83.30
2019-03-22T05:55:33.461Z,81.07
2019-03-22T05:58:01.334Z,76.27
2019-03-22T06:00:29.468Z,78.73
2019-03-22T06:03:16.495Z,80.13
2019-03-22T06:05:44.920Z,75.57
2019-03-22T06:08:12.990Z,71.70
2019-03-22T06:10:41.100Z,85.97
2019-03-22T06:13:09.138Z,78.30
2019-03-22T06:15:37.091Z,78.97
2019-03-22T06:18:04.974Z,76.40
2019-03-22T06:20:32.855Z,72.60
2019-03-22T06:23:00.742Z,73.50
2019-03-22T06:25:47.911Z,66.73
2019-03-22T06:28:15.884Z,66.33
2019-03-22T06:30:43.780Z,66.17
2019-03-22T06:33:30.951Z,73.33
2019-03-22T06:35:58.990Z,68.43
2019-03-22T06:38:26.859Z,78.00
2019-03-22T06:41:13.955Z,72.17
2019-03-22T06:43:42.035Z,84.30
2019-03-22T06:46:16.032Z,67.77
2019-03-22T06:48:44.095Z,87.57
2019-03-22T06:51:12.200Z,78.97
2019-03-22T06:53:40.093Z,73.80
2019-03-22T06:56:27.491Z,67.10
2019-03-22T06:58:55.321Z,66.03
2019-03-22T07:01:23.273Z,56.63
2019-03-22T07:03:51.199Z,54.57
2019-03-22T07:06:38.429Z,61.37
2019-03-22T07:09:09.779Z,53.97
2019-03-22T07:11:38.231Z,60.07
2019-03-22T07:14:06.154Z,55.77
2019-03-22T07:16:34.388Z,53.70
2019-03-22T07:19:02.291Z,59.83
2019-03-22T07:21:30.171Z,59.07
2019-03-22T07:23:58.172Z,59.47
2019-03-22T07:26:26.120Z,56.07
2019-03-22T07:28:54.139Z,60.07
2019-03-22T07:31:29.780Z,59.70
2019-03-22T07:33:57.870Z,57.00
2019-03-22T07:36:25.724Z,59.13
2019-03-22T07:38:53.660Z,56.23
2019-03-22T07:41:21.747Z,53.53
2019-03-22T07:43:49.600Z,51.63
2019-03-22T07:46:17.671Z,48.57
2019-03-22T07:48:45.515Z,49.93
2019-03-22T07:51:13.495Z,49.73
2019-03-22T07:53:41.482Z,55.83
2019-03-22T07:56:09.468Z,54.33
2019-03-22T07:58:37.527Z,47.03
2019-03-22T08:01:05.408Z,47.17
2019-03-22T08:03:33.271Z,50.17
2019-03-22T08:06:01.184Z,47.13
2019-03-22T08:08:29.326Z,46.37
2019-03-22T08:10:57.407Z,47.77
2019-03-22T08:13:25.366Z,42.93
2019-03-22T08:15:53.316Z,46.83
2019-03-22T08:18:21.212Z,48.93
2019-03-22T08:21:08.463Z,45.03
2019-03-22T08:23:36.583Z,43.63
2019-03-22T08:26:04.741Z,42.80
2019-03-22T08:28:32.787Z,45.40
2019-03-22T08:31:01.016Z,44.87
2019-03-22T08:33:29.088Z,49.47
2019-03-22T08:35:57.036Z,45.17
2019-03-22T08:38:25.002Z,47.00
2019-03-22T08:40:52.979Z,53.10
2019-03-22T08:43:21.319Z,51.30
2019-03-22T08:46:08.477Z,48.93
2019-03-22T08:48:36.658Z,54.00
2019-03-22T08:51:04.536Z,53.70
2019-03-22T08:53:32.446Z,49.47
2019-03-22T08:56:00.575Z,52.30
2019-03-22T08:58:28.459Z,51.47
2019-03-22T09:01:15.526Z,52.13
2019-03-22T09:06:28.730Z,47.37
2019-03-22T09:09:15.802Z,47.33
2019-03-22T09:11:43.803Z,48.17
2019-03-22T09:14:30.880Z,48.23
2019-03-22T09:16:58.989Z,50.70
2019-03-22T09:19:26.903Z,47.53
2019-03-22T09:21:54.879Z,48.63
2019-03-22T09:24:22.836Z,48.93
2019-03-22T09:26:50.752Z,52.30
2019-03-22T09:29:18.706Z,51.47
2019-03-22T09:31:46.682Z,53.67
2019-03-22T09:34:14.819Z,51.77
2019-03-22T09:36:42.724Z,59.93
2019-03-22T09:39:10.756Z,56.17
2019-03-22T09:41:57.836Z,60.53
2019-03-22T09:44:28.227Z,58.10
2019-03-22T09:47:16.528Z,61.97
2019-03-22T09:49:57.466Z,64.23
2019-03-22T09:52:25.435Z,63.80
2019-03-22T09:54:53.491Z,61.00
2019-03-22T09:57:21.564Z,64.27
2019-03-22T10:00:08.808Z,63.70
2019-03-22T10:02:36.777Z,66.63
2019-03-22T10:05:05.404Z,65.70
2019-03-22T10:07:33.552Z,68.17
2019-03-22T10:10:01.510Z,62.63
2019-03-22T10:12:29.627Z,70.87
2019-03-22T10:14:57.650Z,68.37
2019-03-22T10:17:26.193Z,69.53
2019-03-22T10:19:57.302Z,69.27
2019-03-22T10:22:44.448Z,67.37
2019-03-22T10:25:12.568Z,68.93
2019-03-22T10:27:40.540Z,70.37
2019-03-22T10:30:08.586Z,74.77
2019-03-22T10:32:36.662Z,72.70
2019-03-22T10:35:04.823Z,70.27
2019-03-22T10:37:32.792Z,75.67
2019-03-22T10:40:00.723Z,77.30
2019-03-22T10:42:28.726Z,74.60
2019-03-22T10:45:15.936Z,75.97
2019-03-22T10:47:43.933Z,80.27
2019-03-22T10:50:12.062Z,76.80
2019-03-22T10:52:40.015Z,75.60
2019-03-22T10:55:28.455Z,79.47
2019-03-22T10:57:40.300Z,80.20
2019-03-22T11:00:09.686Z,75.03
2019-03-22T11:02:37.532Z,78.63
2019-03-22T11:05:06.626Z,75.13
2019-03-22T11:07:53.695Z,76.53
2019-03-22T11:10:21.738Z,77.63
2019-03-22T11:12:49.691Z,82.07
2019-03-22T11:15:17.723Z,74.37
2019-03-22T11:17:45.641Z,74.23
2019-03-22T11:20:14.135Z,70.37
2019-03-22T11:22:42.232Z,70.73
2019-03-22T11:25:10.495Z,71.30
2019-03-22T11:27:38.506Z,71.90
2019-03-22T11:30:08.003Z,73.20
2019-03-22T11:32:35.852Z,73.23
2019-03-22T11:35:04.970Z,71.47
2019-03-22T11:37:32.918Z,73.70
2019-03-22T11:40:00.765Z,69.30
2019-03-22T11:42:28.753Z,67.40
2019-03-22T11:44:56.662Z,67.60
2019-03-22T11:47:43.970Z,64.13
2019-03-22T11:50:11.938Z,71.60
2019-03-22T11:52:39.928Z,70.30
2019-03-22T11:55:26.956Z,67.83
2019-03-22T11:58:07.895Z,71.17
2019-03-22T12:03:21.222Z,71.87
2019-03-22T12:05:49.149Z,69.60
2019-03-22T12:08:17.079Z,67.30
2019-03-22T12:10:44.966Z,65.87
2019-03-22T12:13:32.203Z,68.73
2019-03-22T12:16:12.835Z,65.00
2019-03-22T12:18:40.691Z,65.10
2019-03-22T12:21:08.542Z,60.17
2019-03-22T12:23:36.456Z,59.97
2019-03-22T12:26:06.383Z,59.90
2019-03-22T12:28:34.390Z,57.70
2019-03-22T12:31:02.421Z,58.47
2019-03-22T12:33:49.521Z,54.00
2019-03-22T12:36:17.507Z,51.33
2019-03-22T12:39:06.282Z,45.60
2019-03-22T12:41:34.214Z,41.50
2019-03-22T12:44:02.148Z,47.47
2019-03-22T12:46:30.238Z,48.40
2019-03-22T12:48:58.105Z,44.33
2019-03-22T12:51:45.186Z,44.13
2019-03-22T12:54:13.228Z,35.93
2019-03-22T12:57:00.290Z,36.40
2019-03-22T12:59:28.382Z,35.37
2019-03-22T13:01:56.216Z,41.03
2019-03-22T13:04:24.218Z,42.40
2019-03-22T13:06:53.214Z,35.87
2019-03-22T13:09:21.240Z,41.80
2019-03-22T13:11:49.209Z,40.17
2019-03-22T13:14:17.306Z,44.23
2019-03-22T13:16:45.324Z,44.97
2019-03-22T13:19:13.386Z,42.60
2019-03-22T13:21:41.346Z,44.27
2019-03-22T13:24:09.382Z,46.50
2019-03-22T13:26:37.225Z,43.80
2019-03-22T13:29:05.106Z,46.90
2019-03-22T13:31:32.951Z,40.93
2019-03-22T13:34:00.926Z,41.70
2019-03-22T13:36:47.986Z,43.53
2019-03-22T13:39:35.043Z,42.07
2019-03-22T13:42:03.007Z,44.10
2019-03-22T13:44:30.918Z,48.57
2019-03-22T13:46:58.775Z,43.77
2019-03-22T13:49:26.802Z,44.83
2019-03-22T13:51:54.655Z,45.23
2019-03-22T13:54:22.614Z,46.87
2019-03-22T13:56:50.507Z,47.17
2019-03-22T13:59:18.404Z,48.13
2019-03-22T14:01:46.318Z,43.67
2019-03-22T14:04:33.402Z,41.13
2019-03-22T14:07:01.484Z,42.03
2019-03-22T14:09:29.442Z,41.07
2019-03-22T14:11:57.647Z,38.77
2019-03-22T14:14:25.517Z,41.20
2019-03-22T14:16:54.112Z,40.53
2019-03-22T14:19:41.363Z,40.83
2019-03-22T14:22:09.397Z,41.17
2019-03-22T14:24:37.297Z,37.07
2019-03-22T14:27:24.485Z,37.53
2019-03-22T14:30:11.539Z,40.77
2019-03-22T14:32:39.641Z,36.50
2019-03-22T14:35:09.398Z,40.10
2019-03-22T14:37:56.472Z,41.53
2019-03-22T14:40:24.526Z,38.53
2019-03-22T14:42:52.512Z,37.80
2019-03-22T14:45:26.566Z,52.80
2019-03-22T14:47:54.495Z,64.47
2019-03-22T14:50:22.361Z,65.23
2019-03-22T14:52:50.410Z,67.53
2019-03-22T14:55:18.522Z,65.03
2019-03-22T14:57:49.246Z,68.87
2019-03-22T15:00:16.355Z,66.73
2019-03-22T15:02:44.205Z,64.90
2019-03-22T15:05:12.080Z,66.33
2019-03-22T15:07:40.167Z,65.13
2019-03-22T15:10:08.140Z,62.97
2019-03-22T15:12:36.185Z,69.87
2019-03-22T15:15:32.444Z,70.43
2019-03-22T15:18:18.677Z,71.60
2019-03-22T15:21:02.016Z,78.07
2019-03-22T15:24:05.214Z,73.83
2019-03-22T15:27:04.673Z,73.87
2019-03-22T15:29:52.139Z,73.37
2019-03-22T15:32:39.677Z,74.67
2019-03-22T15:38:28.500Z,76.30
2019-03-22T15:40:56.732Z,75.30
2019-03-22T15:43:24.618Z,76.23
2019-03-22T15:45:52.757Z,78.93
2019-03-22T15:48:20.788Z,69.83
2019-03-22T15:50:57.934Z,77.83
2019-03-22T15:53:26.527Z,72.43
2019-03-22T15:55:54.436Z,76.37
2019-03-22T15:58:22.322Z,73.97
2019-03-22T16:00:50.355Z,77.50
2019-03-22T16:03:18.229Z,79.67
2019-03-22T16:05:46.358Z,77.00
2019-03-22T16:08:14.419Z,76.63
2019-03-22T16:10:42.272Z,87.53
2019-03-22T16:13:10.276Z,84.53
2019-03-22T16:15:38.146Z,87.23
2019-03-22T16:18:06.068Z,81.43
2019-03-22T16:20:33.932Z,81.17
2019-03-22T16:23:05.277Z,84.37
2019-03-22T16:25:33.272Z,85.07
2019-03-22T16:28:20.413Z,91.40
2019-03-22T16:30:48.571Z,78.97
2019-03-22T16:33:16.482Z,81.27
2019-03-22T16:36:03.649Z,77.30
2019-03-22T16:38:31.502Z,80.80
2019-03-22T16:40:59.517Z,77.33
2019-03-22T16:43:27.499Z,80.50
2019-03-22T16:45:55.668Z,77.97
2019-03-22T16:48:23.627Z,83.53
2019-03-22T16:50:51.935Z,81.27
2019-03-22T16:53:19.872Z,89.83
2019-03-22T16:56:07.167Z,77.37
2019-03-22T16:58:35.014Z,83.80
2019-03-22T17:01:08.772Z,82.43
2019-03-22T17:03:36.904Z,76.63
2019-03-22T17:06:04.886Z,80.63
2019-03-22T17:08:33.100Z,78.37
2019-03-22T17:11:20.370Z,84.67
2019-03-22T17:13:48.576Z,91.43
2019-03-22T17:16:16.512Z,91.47
2019-03-22T17:18:44.692Z,87.57
2019-03-22T17:21:12.680Z,83.77
2019-03-22T17:23:40.743Z,79.30
2019-03-22T17:26:08.904Z,79.77
2019-03-22T17:28:36.971Z,83.30
2019-03-22T17:31:04.963Z,93.77
2019-03-22T17:33:52.181Z,82.63
2019-03-22T17:36:21.023Z,91.20
2019-03-22T17:38:55.659Z,89.67
2019-03-22T17:41:24.218Z,87.60
2019-03-22T17:43:52.355Z,93.43
2019-03-22T17:46:20.341Z,99.07
2019-03-22T17:48:48.665Z,85.60
2019-03-22T17:51:16.646Z,100.97
2019-03-22T17:53:44.667Z,102.23
2019-03-22T17:56:12.610Z,103.93
2019-03-22T17:58:40.588Z,98.30
2019-03-22T18:01:08.644Z,90.43
2019-03-22T18:03:36.595Z,102.80
2019-03-22T18:06:23.690Z,108.27
2019-03-22T18:08:51.716Z,103.97
2019-03-22T18:11:19.891Z,101.83
2019-03-22T18:13:50.390Z,103.37
2019-03-22T18:16:24.199Z,101.77
2019-03-22T18:18:52.420Z,102.97
2019-03-22T18:21:39.493Z,105.67
2019-03-22T18:24:07.505Z,102.17
2019-03-22T18:26:54.622Z,104.53
2019-03-22T18:29:41.720Z,106.13
2019-03-22T18:32:09.747Z,116.03
2019-03-22T18:34:37.678Z,114.07
2019-03-22T18:37:05.626Z,120.33
2019-03-22T18:39:33.605Z,111.90
2019-03-22T18:42:01.586Z,108.67
2019-03-22T18:44:29.539Z,111.90
2019-03-22T18:46:57.388Z,114.10
2019-03-22T18:49:25.413Z,112.60
2019-03-22T18:51:53.327Z,124.93
2019-03-22T18:54:21.235Z,107.00
2019-03-22T18:57:08.279Z,115.60
2019-03-22T18:59:36.279Z,124.20
2019-03-22T19:02:04.126Z,119.87
2019-03-22T19:04:32.007Z,116.10
2019-03-22T19:06:59.983Z,128.27
2019-03-22T19:09:27.868Z,126.30
2019-03-22T19:11:55.851Z,109.63
2019-03-22T19:14:42.941Z,121.90
2019-03-22T19:17:10.890Z,127.67
2019-03-22T19:19:38.756Z,125.73
2019-03-22T19:22:06.790Z,116.30
2019-03-22T19:24:34.720Z,128.80
2019-03-22T19:27:02.650Z,120.27
2019-03-22T19:29:49.817Z,112.57
2019-03-22T19:32:17.908Z,117.53
2019-03-22T19:34:53.998Z,124.40
2019-03-22T19:37:15.547Z,134.93
2019-03-22T19:39:43.668Z,122.77
2019-03-22T19:42:11.691Z,117.33
2019-03-22T19:44:39.699Z,114.17
2019-03-22T19:47:07.556Z,107.03
2019-03-22T19:49:35.558Z,108.17
2019-03-22T19:52:03.655Z,110.20
2019-03-22T19:54:31.630Z,101.13
2019-03-22T19:56:59.639Z,110.63
2019-03-22T19:59:27.494Z,123.60
2019-03-22T20:01:55.382Z,125.23
2019-03-22T20:04:23.380Z,120.93
2019-03-22T20:06:51.687Z,124.47
2019-03-22T20:09:19.637Z,122.17
2019-03-22T20:11:47.561Z,122.93
2019-03-22T20:14:15.607Z,108.20
2019-03-22T20:16:43.542Z,117.80
2019-03-22T20:19:11.694Z,116.17
2019-03-22T20:21:39.744Z,123.93
2019-03-22T20:24:07.887Z,108.37
2019-03-22T20:26:35.957Z,85.87
2019-03-22T20:29:03.830Z,97.03
2019-03-22T20:31:31.947Z,94.80
2019-03-22T20:34:11.798Z,94.40
2019-03-22T20:39:24.350Z,96.90
2019-03-22T20:41:52.354Z,99.07
2019-03-22T20:44:20.187Z,101.97
2019-03-22T20:46:48.058Z,91.23
2019-03-22T20:49:15.962Z,94.17
2019-03-22T20:51:43.932Z,92.60
2019-03-22T20:54:11.771Z,87.37
2019-03-22T20:56:39.796Z,90.00
2019-03-22T20:59:07.818Z,83.83
2019-03-22T21:01:35.668Z,84.40
2019-03-22T21:04:03.723Z,82.03
2019-03-22T21:06:31.687Z,78.07
2019-03-22T21:08:59.584Z,77.53
2019-03-22T21:11:27.551Z,79.80
2019-03-22T21:13:55.575Z,86.07
2019-03-22T21:16:23.642Z,82.10
2019-03-22T21:19:10.689Z,83.67
2019-03-22T21:21:38.538Z,84.03
2019-03-22T21:24:08.673Z,81.07
2019-03-22T21:26:36.189Z,82.57
2019-03-22T21:29:09.623Z,71.80
2019-03-22T21:31:56.734Z,68.93
2019-03-22T21:37:09.264Z,71.40
2019-03-22T21:39:41.991Z,72.00
2019-03-22T21:42:09.907Z,65.70
2019-03-22T21:44:38.099Z,60.17
2019-03-22T21:47:06.095Z,60.40
2019-03-22T21:49:34.085Z,58.93
2019-03-22T21:52:01.927Z,52.97
2019-03-22T21:54:30.974Z,55.83
2019-03-22T21:56:58.935Z,53.80
2019-03-22T21:59:26.885Z,54.97
2019-03-22T22:01:54.805Z,53.67
2019-03-22T22:04:42.039Z,54.17
2019-03-22T22:07:29.228Z,52.73
2019-03-22T22:09:57.071Z,51.30
2019-03-22T22:12:25.034Z,46.87
2019-03-22T22:14:52.895Z,52.47
2019-03-22T22:17:20.904Z,49.40
2019-03-22T22:19:48.864Z,55.50
2019-03-22T22:22:16.688Z,49.73
2019-03-22T22:24:44.602Z,55.03
2019-03-22T22:27:14.099Z,49.37
2019-03-22T22:29:42.194Z,52.73
2019-03-22T22:32:29.592Z,51.93
2019-03-22T22:35:10.053Z,50.27
2019-03-22T22:37:38.082Z,50.90
2019-03-22T22:40:06.022Z,48.83
2019-03-22T22:42:53.231Z,43.83
2019-03-22T22:45:21.101Z,49.60
2019-03-22T22:47:48.927Z,48.57
2019-03-22T22:50:17.668Z,47.57
2019-03-22T22:52:45.646Z,48.17
2019-03-22T22:55:13.645Z,47.47
2019-03-22T22:57:41.595Z,50.93
2019-03-22T23:00:11.424Z,46.23
2019-03-22T23:02:39.394Z,47.80
2019-03-22T23:05:07.228Z,49.53
2019-03-22T23:07:54.308Z,47.63
2019-03-22T23:10:22.308Z,46.63
2019-03-22T23:13:09.346Z,47.80
2019-03-22T23:15:37.407Z,48.80
2019-03-22T23:18:05.234Z,51.47
2019-03-22T23:20:52.351Z,51.60
2019-03-22T23:23:28.779Z,51.73
2019-03-22T23:25:56.643Z,47.80
2019-03-22T23:28:24.726Z,48.63
2019-03-22T23:30:52.766Z,50.50
2019-03-22T23:33:20.679Z,51.97
2019-03-22T23:36:07.762Z,51.50
2019-03-22T23:38:35.694Z,49.00
2019-03-22T23:41:03.545Z,49.40
2019-03-22T23:43:31.513Z,48.90
2019-03-22T23:45:59.548Z,51.97
2019-03-22T23:48:27.459Z,50.73
2019-03-22T23:50:55.439Z,51.77
2019-03-22T23:53:42.483Z,51.13
2019-03-22T23:56:10.408Z,48.80
2019-03-22T23:58:40.393Z,51.83
